Lincoln, Delaware
Current Conditions -  °F | °C
As of 12:54 AM on Wednesday 22 Oct 2014 (Local Time) from KGED Reporting Station
Light Rain Light Rain  
Wind Chill: 56°   Ceiling: 5500
Heat Index: 56°   Visibility: 7mi
Dew Point: 53°   Wind: 6mph
Humidity: 90%   Direction: 340°NNW
Pressure: 29.84"   Gusts: NA
Location:  38.87°N, 75.42°W
Report Text: KGED 220454Z AUTO 34005KT 7SM -RA FEW045 BKN055 OVC070 13/12 A2984 RMK AO2 LTG DSNT NE AND E SLP104 P0002 T01330117 402220111
Loading
Personal Weather Stations






























Interactive Weather Map
Tropical Storm Tracking
New forecast layout! Learn more

10-Day Weather Forecast

Advertisements
Track Severe Weather on mobile